Time;durP1;ratioP1;P1;durP2;ratioP2;P2;SDS_P1;SDS_P2;PMS_P1;PMS_P2;Temp;Humidity;BMP_temperature;BMP_pressure;BME280_temperature;BME280_humidity;BME280_pressure;Samples;Min_cycle;Max_cycle;Signal;HPM_P1;HPM_P2
2021/08/03 00:01:12;;;;;;;4.00;3.13;;;16.50;99.90;;;;;;5052281;28;20912;-59
2021/08/03 00:03:45;;;;;;;4.00;3.60;;;16.50;99.90;;;;;;5053542;28;20444;-59
2021/08/03 00:06:15;;;;;;;5.70;3.57;;;16.50;99.90;;;;;;5053514;28;20498;-59
2021/08/03 00:08:45;;;;;;;5.53;3.50;;;16.60;99.90;;;;;;5054054;28;20494;-59
2021/08/03 00:11:13;;;;;;;4.23;3.83;;;16.60;99.90;;;;;;5053315;28;20992;-59
2021/08/03 00:13:40;;;;;;;5.10;3.50;;;16.50;99.90;;;;;;5052631;28;20447;-60
2021/08/03 00:16:10;;;;;;;6.73;3.63;;;16.40;99.90;;;;;;5052995;28;20479;-59
2021/08/03 00:18:37;;;;;;;4.10;3.53;;;16.40;99.90;;;;;;5053902;28;20447;-59
2021/08/03 00:21:07;;;;;;;4.20;3.37;;;16.30;99.90;;;;;;5053146;28;20479;-59
2021/08/03 00:23:34;;;;;;;3.73;3.20;;;16.30;99.90;;;;;;5053274;28;20458;-59
2021/08/03 00:26:01;;;;;;;4.00;3.60;;;16.30;99.90;;;;;;5053240;28;20503;-59
2021/08/03 00:28:28;;;;;;;6.77;3.90;;;16.30;99.90;;;;;;5053603;28;20506;-59
2021/08/03 00:30:55;;;;;;;5.83;3.70;;;16.30;99.90;;;;;;5053576;28;20924;-59
2021/08/03 00:33:22;;;;;;;4.60;3.40;;;16.20;99.90;;;;;;5053261;28;20452;-59
2021/08/03 00:35:50;;;;;;;5.60;3.80;;;16.20;99.90;;;;;;5053158;28;20526;-59
2021/08/03 00:38:19;;;;;;;3.87;3.10;;;16.10;99.90;;;;;;5053539;28;20550;-59
2021/08/03 00:40:53;;;;;;;4.20;3.73;;;16.10;99.90;;;;;;5053216;28;20471;-59
2021/08/03 00:43:20;;;;;;;3.70;3.10;;;16.10;99.90;;;;;;5052965;28;20894;-59
2021/08/03 00:45:47;;;;;;;5.20;3.50;;;16.10;99.90;;;;;;5052614;28;20448;-59
2021/08/03 00:48:14;;;;;;;6.47;3.37;;;16.10;99.90;;;;;;5053048;28;20452;-59
2021/08/03 00:50:41;;;;;;;4.80;3.50;;;16.10;99.90;;;;;;5053106;28;20468;-59
2021/08/03 00:53:08;;;;;;;5.33;4.03;;;16.10;99.90;;;;;;5052876;28;20448;-59
2021/08/03 00:55:38;;;;;;;6.10;4.10;;;16.10;99.90;;;;;;5053349;28;20451;-59
2021/08/03 00:58:05;;;;;;;4.07;3.67;;;16.00;99.90;;;;;;5053316;28;20443;-59
2021/08/03 01:00:32;;;;;;;4.90;3.83;;;15.90;99.90;;;;;;5052594;28;20541;-59
2021/08/03 01:03:00;;;;;;;4.20;3.60;;;15.70;99.90;;;;;;5052530;28;20444;-59
2021/08/03 01:05:33;;;;;;;4.80;3.40;;;15.70;99.90;;;;;;5052811;28;20452;-59
2021/08/03 01:08:08;;;;;;;4.43;3.30;;;15.70;99.90;;;;;;5052564;28;20440;-60
2021/08/03 01:10:47;;;;;;;4.63;3.90;;;15.50;99.90;;;;;;5051824;28;20463;-59
2021/08/03 01:13:17;;;;;;;3.27;2.97;;;15.60;99.90;;;;;;5052744;28;20521;-59
2021/08/03 01:15:52;;;;;;;4.27;3.37;;;15.60;99.90;;;;;;5052752;28;20509;-59
2021/08/03 01:18:28;;;;;;;4.10;3.50;;;15.60;99.90;;;;;;5052783;28;20532;-59
2021/08/03 01:21:18;;;;;;;4.57;3.87;;;15.70;99.90;;;;;;5052596;28;20483;-59
2021/08/03 01:24:17;;;;;;;3.57;3.20;;;15.60;99.90;;;;;;5052304;28;20459;-59
2021/08/03 01:27:10;;;;;;;6.13;3.23;;;15.60;99.90;;;;;;5052561;28;20867;-59
2021/08/03 01:29:41;;;;;;;6.97;3.57;;;15.50;99.90;;;;;;5051309;28;20444;-59
2021/08/03 01:32:12;;;;;;;3.87;3.47;;;15.60;99.90;;;;;;5051808;28;21075;-59
2021/08/03 01:34:42;;;;;;;4.57;3.83;;;15.60;99.90;;;;;;5052604;28;20448;-59
2021/08/03 01:37:14;;;;;;;4.97;3.50;;;15.60;99.90;;;;;;5052209;28;20859;-59
2021/08/03 01:39:47;;;;;;;4.50;4.00;;;15.60;99.90;;;;;;5052626;28;21011;-59
2021/08/03 01:42:17;;;;;;;4.63;4.10;;;15.60;99.90;;;;;;5051805;28;20525;-59
2021/08/03 01:44:47;;;;;;;5.10;4.00;;;15.50;99.90;;;;;;5051847;28;20509;-59
2021/08/03 01:47:19;;;;;;;4.40;3.87;;;15.50;99.90;;;;;;5051681;28;20448;-59
2021/08/03 01:49:47;;;;;;;5.37;3.83;;;15.50;99.90;;;;;;5051807;28;20513;-59
2021/08/03 01:52:16;;;;;;;4.57;3.23;;;15.40;99.90;;;;;;5051758;28;20985;-59
2021/08/03 01:54:46;;;;;;;3.43;3.10;;;15.50;99.90;;;;;;5052224;28;20510;-59
2021/08/03 01:57:15;;;;;;;3.43;3.10;;;15.40;99.90;;;;;;5038776;28;20928;-59
2021/08/03 01:59:45;;;;;;;3.83;3.40;;;15.40;99.90;;;;;;5051818;28;20447;-59
2021/08/03 02:02:18;;;;;;;4.53;3.37;;;15.30;99.90;;;;;;5051924;28;20463;-59
2021/08/03 02:04:47;;;;;;;4.43;3.37;;;15.20;99.90;;;;;;5051891;28;20456;-59
2021/08/03 02:07:15;;;;;;;4.87;3.73;;;15.20;99.90;;;;;;5036029;28;20444;-59
2021/08/03 02:09:44;;;;;;;5.47;3.17;;;15.00;99.90;;;;;;5051662;28;20448;-59
2021/08/03 02:12:12;;;;;;;4.03;3.10;;;14.90;99.90;;;;;;5051279;28;20472;-59
2021/08/03 02:14:44;;;;;;;3.90;3.40;;;14.90;99.90;;;;;;5050820;28;20874;-59
2021/08/03 02:17:17;;;;;;;4.00;3.10;;;14.80;99.90;;;;;;5051415;28;20483;-59
2021/08/03 02:19:44;;;;;;;4.90;3.30;;;14.90;99.90;;;;;;5051889;28;20452;-59
2021/08/03 02:22:11;;;;;;;4.57;3.63;;;14.90;99.90;;;;;;5050516;28;20525;-59
2021/08/03 02:24:39;;;;;;;5.90;4.10;;;15.00;99.90;;;;;;5051627;28;20900;-59
2021/08/03 02:27:06;;;;;;;5.57;3.40;;;15.00;99.90;;;;;;5051401;28;20502;-59
2021/08/03 02:29:33;;;;;;;5.93;3.67;;;15.00;99.90;;;;;;5050735;28;20451;-59
2021/08/03 02:32:07;;;;;;;4.07;3.40;;;15.00;99.90;;;;;;5050659;28;20464;-59
2021/08/03 02:34:41;;;;;;;6.17;3.70;;;14.90;99.90;;;;;;5051795;28;20509;-59
2021/08/03 02:37:15;;;;;;;4.60;3.93;;;14.90;99.90;;;;;;5051726;28;20478;-59
2021/08/03 02:39:44;;;;;;;5.77;3.80;;;14.80;99.90;;;;;;5051800;28;20447;-59
2021/08/03 02:42:15;;;;;;;3.97;3.57;;;14.90;99.90;;;;;;5050141;28;20467;-59
2021/08/03 02:44:43;;;;;;;6.83;4.00;;;14.80;99.90;;;;;;5051070;28;20514;-59
2021/08/03 02:47:26;;;;;;;4.60;4.03;;;14.90;99.90;;;;;;5051290;28;20501;-59
2021/08/03 02:50:05;;;;;;;5.70;3.50;;;14.80;99.90;;;;;;5051487;28;20428;-59
2021/08/03 02:52:33;;;;;;;5.00;4.50;;;14.80;99.90;;;;;;5035086;28;20468;-59
2021/08/03 02:55:04;;;;;;;4.53;3.43;;;14.80;99.90;;;;;;5050994;28;20452;-59
2021/08/03 02:57:35;;;;;;;5.33;3.97;;;14.80;99.90;;;;;;5063539;28;20475;-59
2021/08/03 03:00:04;;;;;;;5.80;4.00;;;14.80;99.90;;;;;;5071238;28;20532;-59
2021/08/03 03:02:35;;;;;;;5.77;3.93;;;14.80;99.90;;;;;;5051136;28;20474;-59
2021/08/03 03:05:07;;;;;;;4.07;3.67;;;14.70;99.90;;;;;;5051333;28;20967;-59
2021/08/03 03:07:38;;;;;;;5.00;4.00;;;14.60;99.90;;;;;;5051311;28;20443;-59
2021/08/03 03:10:11;;;;;;;4.10;3.70;;;14.50;99.90;;;;;;5051234;28;20516;-59
2021/08/03 03:12:40;;;;;;;5.00;4.33;;;14.50;99.90;;;;;;5050595;28;20448;-59
2021/08/03 03:15:10;;;;;;;3.97;3.13;;;14.50;99.90;;;;;;5051322;28;20447;-59
2021/08/03 03:17:37;;;;;;;4.30;3.20;;;14.60;99.90;;;;;;5051225;28;20533;-59
2021/08/03 03:20:07;;;;;;;4.07;3.67;;;14.60;99.90;;;;;;5051065;28;20447;-59
2021/08/03 03:22:39;;;;;;;5.33;4.10;;;14.60;99.90;;;;;;5088229;22;21011;-52
2021/08/03 03:25:07;;;;;;;5.93;4.40;;;14.60;99.90;;;;;;5071049;28;20446;-52
2021/08/03 03:27:35;;;;;;;4.50;3.80;;;14.50;99.90;;;;;;5073885;28;20438;-53
2021/08/03 03:30:03;;;;;;;4.57;3.73;;;14.50;99.90;;;;;;5074719;28;20870;-52
2021/08/03 03:32:32;;;;;;;6.50;4.10;;;14.50;99.90;;;;;;5074056;28;20471;-52
2021/08/03 03:35:01;;;;;;;6.30;4.50;;;14.40;99.90;;;;;;5074642;28;20535;-52
2021/08/03 03:37:31;;;;;;;4.83;4.20;;;14.40;99.90;;;;;;5074526;28;20551;-53
2021/08/03 03:39:58;;;;;;;4.83;3.80;;;14.30;99.90;;;;;;5074543;28;20499;-54
2021/08/03 03:42:31;;;;;;;4.57;3.90;;;14.20;99.90;;;;;;5074466;28;20470;-52
2021/08/03 03:44:58;;;;;;;6.80;4.03;;;14.20;99.90;;;;;;5074625;28;20478;-54
2021/08/03 03:47:30;;;;;;;5.03;4.20;;;14.20;99.90;;;;;;5074453;28;20934;-52
2021/08/03 03:50:06;;;;;;;4.83;4.03;;;14.30;99.90;;;;;;5074445;28;20454;-52
2021/08/03 03:52:40;;;;;;;4.80;4.13;;;14.30;99.90;;;;;;5064243;28;20502;-53
2021/08/03 03:55:10;;;;;;;6.33;4.00;;;14.30;99.90;;;;;;5065517;28;20509;-52
2021/08/03 03:57:41;;;;;;;7.60;3.83;;;14.30;99.90;;;;;;5054401;28;20483;-52
2021/08/03 04:00:09;;;;;;;5.30;4.10;;;14.30;99.90;;;;;;5068235;28;20447;-54
2021/08/03 04:02:39;;;;;;;6.17;4.30;;;14.30;99.90;;;;;;5073891;28;20470;-52
2021/08/03 04:05:10;;;;;;;5.10;4.60;;;14.20;99.90;;;;;;5074384;28;20491;-54
2021/08/03 04:07:38;;;;;;;5.03;3.83;;;14.20;99.90;;;;;;5074292;28;20455;-53
2021/08/03 04:10:07;;;;;;;4.40;3.83;;;14.30;99.90;;;;;;5074136;28;20446;-52
2021/08/03 04:12:34;;;;;;;5.33;4.20;;;14.30;99.90;;;;;;5066302;28;20471;-52
2021/08/03 04:15:02;;;;;;;5.70;4.17;;;14.40;99.90;;;;;;5073901;28;20450;-52
2021/08/03 04:17:28;;;;;;;9.30;4.80;;;14.30;99.90;;;;;;5073717;28;20531;-53
2021/08/03 04:19:55;;;;;;;5.30;4.10;;;14.30;99.90;;;;;;5074031;28;20457;-53
2021/08/03 04:22:22;;;;;;;9.00;3.97;;;14.30;99.90;;;;;;5073553;28;20483;-51
2021/08/03 04:24:51;;;;;;;8.77;4.63;;;14.30;99.90;;;;;;5073720;28;20455;-53
2021/08/03 04:27:20;;;;;;;5.10;4.03;;;14.30;99.90;;;;;;5073733;28;20443;-51
2021/08/03 04:29:47;;;;;;;4.80;4.03;;;14.20;99.90;;;;;;5073487;28;20860;-53
2021/08/03 04:32:17;;;;;;;4.47;3.80;;;14.20;99.90;;;;;;5073065;28;20516;-52
2021/08/03 04:34:44;;;;;;;4.50;3.43;;;14.30;99.90;;;;;;5073097;28;20504;-52
2021/08/03 04:37:15;;;;;;;4.70;3.57;;;14.50;99.90;;;;;;5055266;28;20476;-52
2021/08/03 04:39:42;;;;;;;7.40;4.40;;;14.50;99.90;;;;;;5053012;28;20443;-53
2021/08/03 04:42:13;;;;;;;4.10;3.70;;;14.50;99.90;;;;;;5054174;28;20629;-52
2021/08/03 04:44:40;;;;;;;5.13;3.90;;;14.80;99.90;;;;;;5053389;28;20455;-52
2021/08/03 04:47:07;;;;;;;4.53;3.97;;;14.90;99.90;;;;;;5053491;28;20493;-54
2021/08/03 04:49:34;;;;;;;4.97;4.00;;;15.10;99.90;;;;;;5064558;28;20516;-51
2021/08/03 04:52:01;;;;;;;4.27;3.00;;;15.30;99.90;;;;;;5073096;28;20470;-51
2021/08/03 04:54:28;;;;;;;5.23;4.07;;;15.60;99.90;;;;;;5066590;28;20524;-52
2021/08/03 04:56:55;;;;;;;5.23;3.80;;;15.90;99.90;;;;;;5054515;28;20513;-53
2021/08/03 04:59:23;;;;;;;4.27;3.43;;;16.40;99.90;;;;;;5053132;28;20455;-53
2021/08/03 05:01:50;;;;;;;4.60;3.60;;;17.20;99.90;;;;;;5052766;28;20480;-53
2021/08/03 05:04:17;;;;;;;3.50;3.17;;;18.00;99.90;;;;;;5053088;28;20497;-52
2021/08/03 05:06:44;;;;;;;5.67;3.80;;;18.30;99.90;;;;;;5054141;28;20508;-53
2021/08/03 05:09:11;;;;;;;4.40;3.90;;;18.00;99.90;;;;;;5065353;28;20526;-53
2021/08/03 05:11:38;;;;;;;5.50;3.83;;;17.40;99.90;;;;;;5072544;28;20835;-54
2021/08/03 05:14:05;;;;;;;7.33;3.40;;;17.00;99.90;;;;;;5071516;28;20508;-52
2021/08/03 05:16:33;;;;;;;4.17;3.27;;;16.80;99.90;;;;;;5072611;28;20883;-52
2021/08/03 05:19:00;;;;;;;7.23;3.47;;;16.80;99.90;;;;;;5067570;28;20491;-53
2021/08/03 05:21:27;;;;;;;6.07;3.50;;;16.90;99.90;;;;;;5072539;28;21058;-53
2021/08/03 05:23:54;;;;;;;5.77;3.70;;;17.10;99.90;;;;;;5053465;28;20440;-52
2021/08/03 05:26:21;;;;;;;4.40;3.60;;;17.70;99.90;;;;;;5052451;28;20452;-53
2021/08/03 05:28:48;;;;;;;3.40;3.10;;;18.90;99.90;;;;;;5053795;28;20834;-52
2021/08/03 05:31:15;;;;;;;4.20;3.50;;;20.20;99.90;;;;;;5061381;28;20471;-53
2021/08/03 05:33:43;;;;;;;6.30;3.83;;;20.80;99.90;;;;;;5065481;28;20444;-52
2021/08/03 05:36:10;;;;;;;4.97;3.57;;;21.60;99.90;;;;;;5067392;28;20455;-52
2021/08/03 05:38:37;;;;;;;3.97;3.50;;;21.90;99.90;;;;;;5052250;28;20479;-52
2021/08/03 05:41:04;;;;;;;4.57;3.80;;;21.50;99.90;;;;;;5052415;28;20525;-53
2021/08/03 05:43:31;;;;;;;4.20;3.60;;;21.20;99.90;;;;;;5061358;28;20963;-54
2021/08/03 05:45:58;;;;;;;4.50;4.10;;;20.90;99.90;;;;;;5070654;28;20500;-53
2021/08/03 05:48:25;;;;;;;5.87;3.17;;;20.60;99.90;;;;;;5070547;28;20447;-53
2021/08/03 05:50:53;;;;;;;3.53;2.97;;;20.00;99.90;;;;;;5065189;28;20474;-53
2021/08/03 05:53:20;;;;;;;3.97;3.07;;;19.40;99.90;;;;;;5051646;28;20455;-52
2021/08/03 05:55:47;;;;;;;3.10;2.80;;;18.70;99.90;;;;;;5070769;28;20447;-52
2021/08/03 05:58:14;;;;;;;6.67;3.63;;;18.30;99.90;;;;;;5071806;28;20482;-52
2021/08/03 06:00:43;;;;;;;3.50;3.20;;;18.00;99.90;;;;;;5070218;28;21245;-52
2021/08/03 06:03:10;;;;;;;5.73;3.17;;;17.90;99.90;;;;;;5071110;28;20545;-52
2021/08/03 06:05:37;;;;;;;3.70;3.00;;;17.70;99.90;;;;;;5071437;28;20836;-51
2021/08/03 06:08:11;;;;;;;3.67;3.13;;;17.70;99.90;;;;;;5071278;28;20443;-52
2021/08/03 06:10:40;;;;;;;3.03;2.73;;;18.00;99.90;;;;;;5069133;28;20462;-53
2021/08/03 06:13:11;;;;;;;3.70;2.90;;;18.10;99.90;;;;;;5067519;28;21014;-52
2021/08/03 06:15:40;;;;;;;4.23;3.17;;;17.90;99.90;;;;;;5069634;28;20530;-52
2021/08/03 06:18:13;;;;;;;3.47;3.17;;;17.80;99.90;;;;;;5070633;28;20909;-53
2021/08/03 06:20:41;;;;;;;4.77;3.50;;;17.90;99.90;;;;;;5071084;28;20497;-52
2021/08/03 06:23:11;;;;;;;3.13;2.90;;;17.80;99.90;;;;;;5071135;28;20478;-53
2021/08/03 06:25:40;;;;;;;5.47;3.07;;;17.80;99.90;;;;;;5071288;28;20948;-52
2021/08/03 06:28:07;;;;;;;4.77;3.10;;;17.90;99.90;;;;;;5071284;28;20443;-52
2021/08/03 06:30:37;;;;;;;6.00;3.10;;;17.80;99.90;;;;;;5071679;28;20455;-53
2021/08/03 06:33:05;;;;;;;3.30;3.00;;;17.80;99.90;;;;;;5070785;28;20467;-53
2021/08/03 06:35:33;;;;;;;3.80;3.20;;;17.70;99.90;;;;;;5071259;28;20455;-53
2021/08/03 06:38:00;;;;;;;7.33;3.43;;;17.70;99.90;;;;;;5070746;28;20925;-54
2021/08/03 06:40:32;;;;;;;3.40;3.10;;;17.70;99.90;;;;;;5071369;28;20516;-52
2021/08/03 06:43:07;;;;;;;3.80;3.20;;;17.60;99.90;;;;;;5066172;28;20551;-53
2021/08/03 06:45:36;;;;;;;2.80;2.60;;;17.90;99.90;;;;;;5067649;28;21021;-52
2021/08/03 06:48:06;;;;;;;5.63;2.97;;;18.00;99.90;;;;;;5068388;28;20960;-52
2021/08/03 06:50:35;;;;;;;4.20;2.90;;;18.30;99.90;;;;;;5068366;28;20509;-51
2021/08/03 06:53:05;;;;;;;3.27;2.60;;;18.90;99.90;;;;;;5075661;28;20535;-52
2021/08/03 06:55:34;;;;;;;2.70;2.50;;;19.40;99.90;;;;;;5061549;28;20504;-51
2021/08/03 06:58:04;;;;;;;2.85;2.65;;;19.60;99.90;;;;;;5065271;28;20457;-51
2021/08/03 07:00:37;;;;;;;2.40;2.20;;;19.70;99.90;;;;;;5063418;28;20248;-51
2021/08/03 07:03:06;;;;;;;3.17;2.87;;;19.70;99.90;;;;;;5067521;28;20545;-52
2021/08/03 07:05:34;;;;;;;3.17;2.87;;;19.60;99.90;;;;;;5071624;28;20458;-52
2021/08/03 07:08:02;;;;;;;3.47;2.80;;;19.50;99.90;;;;;;5072510;28;20461;-52
2021/08/03 07:10:29;;;;;;;4.40;3.20;;;19.40;99.90;;;;;;5073910;28;20494;-51
2021/08/03 07:12:58;;;;;;;4.00;3.00;;;19.30;99.90;;;;;;5074429;28;20572;-52
2021/08/03 07:15:27;;;;;;;5.63;3.00;;;19.10;99.90;;;;;;5078137;28;20443;-51
2021/08/03 07:17:55;;;;;;;3.90;3.07;;;18.90;99.90;;;;;;5064629;28;20486;-52
2021/08/03 07:20:22;;;;;;;4.57;2.80;;;18.80;99.90;;;;;;5073616;28;20865;-52
2021/08/03 07:22:50;;;;;;;2.93;2.63;;;18.70;99.90;;;;;;5069793;28;20486;-51
2021/08/03 07:25:18;;;;;;;3.83;3.30;;;18.60;99.90;;;;;;5070199;28;21000;-52
2021/08/03 07:27:45;;;;;;;2.90;2.60;;;18.90;99.90;;;;;;5062449;28;20901;-51
2021/08/03 07:30:15;;;;;;;4.60;2.93;;;19.10;99.90;;;;;;5073801;28;20545;-52
2021/08/03 07:32:42;;;;;;;3.00;2.70;;;19.20;99.90;;;;;;5070559;28;20489;-52
2021/08/03 07:35:10;;;;;;;3.67;2.90;;;19.00;99.90;;;;;;5069145;28;20462;-51
2021/08/03 07:37:38;;;;;;;3.47;3.17;;;18.80;99.90;;;;;;5067527;28;21014;-52
2021/08/03 07:40:06;;;;;;;3.50;2.90;;;18.70;99.90;;;;;;5071308;28;20916;-52
2021/08/03 07:42:33;;;;;;;5.53;2.97;;;18.70;99.90;;;;;;5071368;28;20486;-51
2021/08/03 07:45:00;;;;;;;4.80;2.73;;;18.90;99.90;;;;;;5066385;28;20458;-52
2021/08/03 07:47:29;;;;;;;3.60;2.77;;;19.00;99.90;;;;;;5054696;28;20552;-52
2021/08/03 07:49:57;;;;;;;2.90;2.47;;;19.20;99.90;;;;;;5049537;28;20498;-51
2021/08/03 07:52:25;;;;;;;3.80;2.73;;;19.50;99.90;;;;;;5060769;28;20531;-52
2021/08/03 07:54:52;;;;;;;3.80;3.07;;;20.00;99.90;;;;;;5071594;28;20505;-52
2021/08/03 07:57:19;;;;;;;4.20;2.50;;;20.60;99.90;;;;;;5067966;28;20607;-52
2021/08/03 07:59:46;;;;;;;3.17;2.63;;;21.10;99.90;;;;;;5066534;28;20486;-52
2021/08/03 08:02:13;;;;;;;3.17;2.80;;;21.20;99.90;;;;;;5072343;28;20486;-52
2021/08/03 08:04:42;;;;;;;4.33;3.10;;;21.20;99.90;;;;;;5073185;28;20471;-51
2021/08/03 08:07:11;;;;;;;5.50;2.57;;;21.10;99.90;;;;;;5073888;28;20442;-52
2021/08/03 08:09:38;;;;;;;3.23;2.93;;;21.10;99.90;;;;;;5073154;28;20454;-52
2021/08/03 08:12:05;;;;;;;3.17;2.87;;;21.00;99.90;;;;;;5072376;28;20479;-52
2021/08/03 08:14:34;;;;;;;3.87;3.07;;;21.10;99.90;;;;;;5066566;28;20510;-52
2021/08/03 08:17:01;;;;;;;6.53;3.00;;;21.00;99.90;;;;;;5073756;28;20442;-52
2021/08/03 08:19:28;;;;;;;3.10;2.80;;;21.20;99.90;;;;;;5072984;28;20487;-52
2021/08/03 08:21:57;;;;;;;3.63;2.57;;;21.60;99.90;;;;;;5077655;28;20567;-52
2021/08/03 08:24:24;;;;;;;4.00;2.70;;;21.70;99.90;;;;;;5076063;28;20459;-52
2021/08/03 08:26:52;;;;;;;3.50;2.53;;;21.60;99.90;;;;;;5076479;28;20463;-52
2021/08/03 08:29:19;;;;;;;2.43;2.10;;;21.60;99.90;;;;;;5072020;28;20455;-52
2021/08/03 08:31:47;;;;;;;3.07;2.77;;;21.60;99.90;;;;;;5071814;28;20536;-52
2021/08/03 08:34:14;;;;;;;3.27;2.87;;;21.50;99.90;;;;;;5073785;28;20899;-52
2021/08/03 08:36:41;;;;;;;3.33;3.03;;;21.50;99.90;;;;;;5072216;28;20893;-52
2021/08/03 08:39:10;;;;;;;2.40;2.10;;;21.60;99.90;;;;;;5073157;28;21004;-52
2021/08/03 08:41:39;;;;;;;3.30;2.40;;;21.50;99.90;;;;;;5074563;28;20482;-52
2021/08/03 08:44:06;;;;;;;2.37;2.17;;;21.40;99.90;;;;;;5072227;28;20447;-52
2021/08/03 08:46:34;;;;;;;1.97;1.87;;;21.40;99.90;;;;;;5067884;28;20892;-52
2021/08/03 08:49:03;;;;;;;2.37;2.17;;;21.20;99.90;;;;;;5072836;28;20443;-52
2021/08/03 08:51:31;;;;;;;3.67;2.40;;;21.10;99.90;;;;;;5070371;28;20483;-51
2021/08/03 08:53:58;;;;;;;2.37;2.17;;;21.10;99.90;;;;;;5071829;28;20473;-53
2021/08/03 08:56:28;;;;;;;3.37;2.40;;;21.00;99.90;;;;;;5067213;28;20463;-52
2021/08/03 08:58:55;;;;;;;3.33;2.27;;;20.90;99.90;;;;;;5064343;28;20519;-52
2021/08/03 09:01:22;;;;;;;2.30;2.10;;;21.10;99.90;;;;;;5071446;28;20483;-52
2021/08/03 09:03:50;;;;;;;2.60;2.27;;;21.40;99.90;;;;;;5072807;28;20876;-52
2021/08/03 09:06:21;;;;;;;2.70;2.30;;;21.60;99.90;;;;;;5071818;28;20892;-52
2021/08/03 09:08:49;;;;;;;3.13;2.50;;;21.90;99.90;;;;;;5071862;28;20502;-53
2021/08/03 09:11:17;;;;;;;4.13;2.70;;;22.10;99.90;;;;;;5072882;28;20470;-52
2021/08/03 09:13:52;;;;;;;5.27;2.90;;;22.10;99.90;;;;;;5071677;28;20895;-52
2021/08/03 09:16:21;;;;;;;2.87;2.67;;;22.10;99.90;;;;;;5072255;28;20519;-52
2021/08/03 09:18:49;;;;;;;8.40;2.70;;;22.10;99.90;;;;;;5071717;28;20491;-51
2021/08/03 09:23:45;;;;;;;4.00;2.67;;;21.70;99.90;;;;;;5099816;22;20580;-59
2021/08/03 09:26:13;;;;;;;3.13;2.80;;;21.80;99.90;;;;;;5079951;28;20447;-58
2021/08/03 09:29:02;;;;;;;3.67;2.83;;;21.70;99.90;;;;;;5083686;28;20886;-59
2021/08/03 09:31:30;;;;;;;3.30;2.50;;;21.60;99.90;;;;;;5072939;28;20530;-59
2021/08/03 09:33:57;;;;;;;3.00;2.73;;;21.60;99.90;;;;;;5066811;28;20444;-59
2021/08/03 09:36:47;;;;;;;2.93;2.67;;;22.00;99.90;;;;;;5060237;28;20476;-59
2021/08/03 09:39:44;;;;;;;2.60;2.40;;;22.20;99.90;;;;;;5043244;28;20479;-59
2021/08/03 09:42:18;;;;;;;3.03;2.40;;;22.50;99.90;;;;;;5056544;28;20479;-59
2021/08/03 09:44:49;;;;;;;4.67;2.37;;;22.70;99.90;;;;;;5061757;28;20447;-58
2021/08/03 09:47:17;;;;;;;4.70;2.73;;;22.90;99.90;;;;;;5067368;28;20493;-59
2021/08/03 09:49:48;;;;;;;3.10;2.80;;;23.10;99.90;;;;;;5062633;28;20513;-60
2021/08/03 09:52:18;;;;;;;2.00;1.90;;;23.30;99.90;;;;;;5070299;28;21023;-60
2021/08/03 09:54:45;;;;;;;3.03;2.17;;;23.30;99.90;;;;;;5067224;28;20454;-59
2021/08/03 09:57:21;;;;;;;2.60;2.40;;;23.40;99.90;;;;;;5053075;28;21027;-59
2021/08/03 09:59:51;;;;;;;2.30;2.20;;;23.80;99.90;;;;;;5062846;28;20238;-59
2021/08/03 10:02:20;;;;;;;3.00;2.70;;;23.30;99.90;;;;;;5068724;28;20540;-59
2021/08/03 10:04:48;;;;;;;4.07;2.50;;;23.30;99.90;;;;;;5064386;28;20463;-59
2021/08/03 10:07:15;;;;;;;2.43;2.23;;;23.70;99.90;;;;;;5051651;28;20584;-59
2021/08/03 10:09:43;;;;;;;2.70;2.50;;;24.10;99.90;;;;;;5051358;28;20440;-59
2021/08/03 10:12:11;;;;;;;2.77;2.57;;;23.80;99.90;;;;;;5058060;28;20536;-58
2021/08/03 10:14:39;;;;;;;2.67;2.43;;;23.90;99.90;;;;;;5053145;28;20522;-59
2021/08/03 10:17:15;;;;;;;3.60;2.83;;;24.30;99.90;;;;;;5051953;28;20521;-59
2021/08/03 10:19:43;;;;;;;2.70;2.50;;;24.20;99.90;;;;;;5058162;28;20521;-59
2021/08/03 10:22:19;;;;;;;3.60;2.90;;;23.40;99.90;;;;;;5065334;28;20475;-59
2021/08/03 10:24:58;;;;;;;3.10;2.80;;;23.70;99.90;;;;;;5061799;28;20817;-58
2021/08/03 10:27:41;;;;;;;6.87;2.73;;;23.40;99.90;;;;;;5051373;28;20455;-59
2021/08/03 10:30:09;;;;;;;7.30;3.97;;;23.20;99.90;;;;;;5050350;28;20469;-58
2021/08/03 10:32:42;;;;;;;3.93;3.53;;;23.10;99.90;;;;;;5058197;28;20522;-58
2021/08/03 10:35:15;;;;;;;4.70;3.90;;;22.30;99.90;;;;;;5054386;28;20456;-58
2021/08/03 10:38:14;;;;;;;5.60;4.77;;;22.10;99.90;;;;;;5059376;28;21101;-58
2021/08/03 10:41:07;;;;;;;5.30;4.23;;;21.80;99.90;;;;;;5051561;28;20605;-58
2021/08/03 10:43:54;;;;;;;5.77;4.30;;;21.90;99.90;;;;;;5049008;28;20525;-59
2021/08/03 10:46:42;;;;;;;6.03;4.70;;;22.30;99.90;;;;;;5051205;28;20452;-59
2021/08/03 10:49:12;;;;;;;5.90;4.80;;;22.80;99.90;;;;;;5051407;28;20950;-59
2021/08/03 10:51:45;;;;;;;5.60;5.10;;;23.10;99.90;;;;;;5051038;28;20553;-58
2021/08/03 10:54:20;;;;;;;4.83;4.23;;;22.90;99.90;;;;;;5049746;28;20448;-58
2021/08/03 10:57:23;;;;;;;4.60;3.73;;;22.20;99.90;;;;;;5059184;28;20511;-59
2021/08/03 11:00:01;;;;;;;6.47;4.20;;;22.40;99.90;;;;;;5038985;28;20533;-59
2021/08/03 11:02:48;;;;;;;4.67;4.00;;;22.70;99.90;;;;;;5050956;28;20554;-59
2021/08/03 11:05:34;;;;;;;4.60;3.70;;;22.40;99.90;;;;;;5051589;28;20448;-59
2021/08/03 11:08:33;;;;;;;4.67;3.87;;;22.40;99.90;;;;;;5051559;28;20451;-59
2021/08/03 11:11:06;;;;;;;4.50;3.50;;;22.40;99.90;;;;;;5039997;28;20448;-59
2021/08/03 11:13:38;;;;;;;5.13;4.63;;;22.50;99.90;;;;;;5050886;28;20546;-59
2021/08/03 11:16:05;;;;;;;3.70;3.40;;;23.10;99.90;;;;;;5051343;28;20892;-59
2021/08/03 11:18:43;;;;;;;4.23;3.80;;;23.50;99.90;;;;;;5051149;28;20439;-59
2021/08/03 11:21:18;;;;;;;4.60;3.90;;;23.70;99.90;;;;;;5056114;28;20477;-58
2021/08/03 11:24:00;;;;;;;3.80;3.50;;;24.00;99.90;;;;;;5051150;28;20455;-58
2021/08/03 11:26:28;;;;;;;4.73;3.00;;;23.90;99.90;;;;;;5051443;28;20443;-59
2021/08/03 11:28:58;;;;;;;3.43;3.13;;;24.30;99.90;;;;;;5051295;28;20447;-59
2021/08/03 11:31:39;;;;;;;4.40;4.00;;;24.80;99.90;;;;;;5051256;28;20447;-59
2021/08/03 11:34:07;;;;;;;3.83;3.47;;;24.60;99.90;;;;;;5063840;28;20874;-59
2021/08/03 11:36:36;;;;;;;3.53;3.13;;;24.30;99.90;;;;;;5071204;28;20447;-59
2021/08/03 11:39:19;;;;;;;3.37;3.07;;;24.20;99.90;;;;;;5070872;28;20447;-59
2021/08/03 11:41:47;;;;;;;3.43;3.13;;;24.00;99.90;;;;;;5046147;28;20980;-59
2021/08/03 11:44:14;;;;;;;3.50;2.50;;;23.80;99.90;;;;;;5051558;28;20517;-59
2021/08/03 11:46:43;;;;;;;2.63;2.43;;;23.40;99.90;;;;;;5070794;28;20457;-59
2021/08/03 11:49:10;;;;;;;2.60;2.40;;;23.50;99.90;;;;;;5074504;28;20580;-59
2021/08/03 11:51:45;;;;;;;2.60;2.27;;;23.70;99.90;;;;;;5065985;28;20478;-59
2021/08/03 11:54:14;;;;;;;2.23;2.03;;;24.00;99.90;;;;;;5074877;28;20454;-59
2021/08/03 11:56:40;;;;;;;2.50;2.30;;;24.20;99.90;;;;;;5074846;28;20447;-59
2021/08/03 11:59:09;;;;;;;2.30;2.17;;;24.60;99.90;;;;;;5074389;28;20508;-59
2021/08/03 12:01:54;;;;;;;2.20;2.00;;;24.90;99.90;;;;;;5063771;28;20469;-59
2021/08/03 12:04:22;;;;;;;2.13;2.03;;;25.10;99.90;;;;;;5062800;28;20969;-59
2021/08/03 12:06:52;;;;;;;2.47;2.27;;;25.00;99.90;;;;;;5054373;28;20864;-59
2021/08/03 12:09:21;;;;;;;2.20;2.00;;;25.00;99.90;;;;;;5053907;28;20501;-58
2021/08/03 12:11:58;;;;;;;2.23;2.13;;;24.90;99.90;;;;;;5054964;28;21058;-59
2021/08/03 12:14:33;;;;;;;1.87;1.77;;;25.30;99.90;;;;;;5053958;28;20451;-59
2021/08/03 12:17:00;;;;;;;2.00;1.90;;;25.70;99.90;;;;;;5054212;28;20465;-59
2021/08/03 12:19:28;;;;;;;5.70;2.30;;;25.90;99.90;;;;;;5053836;28;20533;-58
2021/08/03 12:21:57;;;;;;;3.20;2.47;;;25.30;99.90;;;;;;5054210;28;20467;-59
2021/08/03 12:24:24;;;;;;;2.40;2.20;;;24.60;99.90;;;;;;5056261;28;20581;-59
2021/08/03 12:27:12;;;;;;;4.30;2.27;;;24.50;99.90;;;;;;5073959;28;20446;-59
2021/08/03 12:29:39;;;;;;;2.67;2.30;;;24.60;99.90;;;;;;5061884;28;20451;-58
2021/08/03 12:32:10;;;;;;;2.37;2.27;;;24.80;99.90;;;;;;5053327;28;20475;-58
2021/08/03 12:34:38;;;;;;;2.53;2.33;;;24.80;99.90;;;;;;5047842;28;20453;-58
2021/08/03 12:37:10;;;;;;;2.30;2.10;;;24.60;99.90;;;;;;5056125;28;20486;-58
2021/08/03 12:39:40;;;;;;;4.13;1.90;;;24.00;99.90;;;;;;5053271;28;20490;-58
2021/08/03 12:42:19;;;;;;;3.00;2.20;;;23.90;99.90;;;;;;5049657;28;20876;-58
2021/08/03 12:44:47;;;;;;;2.30;2.20;;;24.00;99.90;;;;;;5052768;28;20215;-58
2021/08/03 12:47:20;;;;;;;1.90;1.80;;;24.40;99.90;;;;;;5052740;28;20609;-59
2021/08/03 12:49:48;;;;;;;2.50;2.00;;;24.80;99.90;;;;;;5053103;28;20510;-58
2021/08/03 12:52:19;;;;;;;2.20;2.10;;;24.60;99.90;;;;;;5052892;28;20513;-58
2021/08/03 12:54:57;;;;;;;2.30;2.10;;;24.30;99.90;;;;;;5052942;28;20493;-58
2021/08/03 12:57:41;;;;;;;2.50;2.30;;;24.10;99.90;;;;;;5048195;28;20505;-58
2021/08/03 13:00:27;;;;;;;4.10;2.20;;;24.10;99.90;;;;;;5051874;28;20996;-58
2021/08/03 13:02:54;;;;;;;2.03;1.90;;;24.10;99.90;;;;;;5052585;28;20521;-58
2021/08/03 13:05:21;;;;;;;3.73;2.80;;;24.30;99.90;;;;;;5052844;28;20451;-58
2021/08/03 13:07:49;;;;;;;2.07;1.90;;;24.20;99.90;;;;;;5052920;28;20460;-58